Weather at Tulloch Airstrip

Public forecast

Using degrees Celsius for public forecast. Weather courtesy of forecast.io.

Closest aviation weather report (METAR) to Tulloch Airstrip

Closest report is Norman Manley International Airport, 15.3 nm (28.3 km) SE. Retrieved 2021/05/09 09:00 UTC (35 minutes ago):

MKJP 090900Z 35003KT 9999 FEW022 25/21 Q1014

Closest aviation forecast (TAF) to Tulloch Airstrip

Closest forecast is Norman Manley International Airport, 15.3 nm (28.3 km) SE. Retrieved 2021/05/09 06:21 UTC (3 hours ago):

TAF MKJP 090515Z 0906/1006 35005KT 9999 FEW022 BECMG 0914/0916 14020KT TEMPO 0918/0921 5000 SHRA BKN018 FEW020CB BECMG 1001/1003 35005KT